Rock Creek, Ohio
Current Conditions -  °F | °C
As of 6:53 PM on Saturday 25 Oct 2014 (Local Time) from KHZY Reporting Station
Clear Clear  
Wind Chill: 61°   Ceiling: Unl
Heat Index: 61°   Visibility: 10mi
Dew Point: 48°   Wind: 15mph
Humidity: 62%   Direction: 270°W
Pressure: 29.73"   Gusts: 26mph
Location:  41.66°N, 80.86°W
Report Text: KHZY 252253Z AUTO 27013G23KT 10SM CLR 16/09 A2973 RMK AO2 SLP067 T01610089
Loading
Personal Weather Stations






























Interactive Weather Map New forecast layout! Learn more

10-Day Weather Forecast

Advertisements
Track Severe Weather on mobile